Weather reports worldwide

Advertisment
Isola Stromboli, Italy (16416): temperature & dewpoint: 10.09.2019 17:00:00 - 16.09.2019 17:00:00 (CEST)Isola Stromboli, Italy (16416): wind speed: 10.09.2019 17:00:00 - 16.09.2019 17:00:00 (CEST)Isola Stromboli, Italy (16416): wind direction: 10.09.2019 17:00:00 - 16.09.2019 17:00:00 (CEST)Isola Stromboli, Italy (16416): reduced air pressure: 10.09.2019 17:00:00 - 16.09.2019 17:00:00 (CEST)
Date & Time tt [°C] td [°C] ff [km/h] ff [kn] dd ppp [hPa]
16.09.2019 17:00:00 - - - - - -
16.09.2019 16:00:00 25,8 19,6 11 6 S 1019,7
16.09.2019 15:00:00 26,5 20,8 8 4 S 1020,1
16.09.2019 14:00:00 26,1 21,0 8 4 S 1020,5
16.09.2019 13:00:00 27,1 23,5 4 2 S 1020,9
16.09.2019 12:00:00 26,3 22,3 4 2 S 1021,4
16.09.2019 11:00:00 25,4 21,8 4 2 S 1021,4
16.09.2019 10:00:00 26,1 23,1 4 2 S 1021,2
16.09.2019 09:00:00 24,9 23,1 2 1 S 1020,9
16.09.2019 08:00:00 23,3 21,5 0 0 N 1020,7
16.09.2019 07:00:00 22,3 19,0 2 1 S 1020,7
16.09.2019 06:00:00 22,7 18,6 2 1 S 1020,5
16.09.2019 05:00:00 22,7 19,6 2 1 S 1020,7
16.09.2019 04:00:00 22,7 19,2 0 0 N 1021,0
16.09.2019 03:00:00 23,0 15,5 2 1 S 1021,5
16.09.2019 02:00:00 23,2 15,7 2 1 S 1021,9
16.09.2019 01:00:00 23,0 18,5 0 0 N 1022,3
16.09.2019 00:00:00 22,9 18,6 4 2 S 1022,4
15.09.2019 23:00:00 23,3 19,0 2 1 S 1022,5
15.09.2019 22:00:00 23,3 18,8 0 0 N 1022,6
15.09.2019 21:00:00 23,3 18,5 0 0 N 1022,4
15.09.2019 20:00:00 23,2 18,5 4 2 S 1022,2
15.09.2019 19:00:00 24,1 18,2 4 2 S 1022,0
15.09.2019 18:00:00 25,9 18,8 5 3 S 1022,4
15.09.2019 17:00:00 26,0 18,3 5 3 S 1022,6
15.09.2019 16:00:00 26,8 19,6 5 3 S 1022,6
15.09.2019 15:00:00 26,4 19,0 13 7 S 1023,3
15.09.2019 14:00:00 27,4 19,9 9 5 S 1023,7
15.09.2019 13:00:00 27,7 20,2 4 2 S 1024,2
15.09.2019 12:00:00 27,1 20,1 5 3 S 1024,6
15.09.2019 11:00:00 27,3 20,6 4 2 S 1024,8
15.09.2019 10:00:00 26,8 20,6 5 3 S 1024,8
15.09.2019 09:00:00 25,6 19,4 8 4 S 1024,7
15.09.2019 08:00:00 24,5 18,8 0 0 N 1024,0
15.09.2019 07:00:00 22,7 15,7 4 2 S 1023,7
15.09.2019 06:00:00 22,9 17,3 4 2 S 1023,3
15.09.2019 05:00:00 23,1 15,6 5 3 S 1023,4
15.09.2019 04:00:00 23,7 15,7 0 0 N 1023,5
15.09.2019 03:00:00 22,5 16,2 4 2 S 1023,7
15.09.2019 02:00:00 22,7 18,6 4 2 S 1024,0
15.09.2019 01:00:00 23,6 19,3 5 3 S 1024,3
15.09.2019 00:00:00 23,8 17,9 5 3 S 1024,5
14.09.2019 23:00:00 23,4 17,3 4 2 S 1024,6
14.09.2019 22:00:00 24,2 18,8 4 2 S 1024,8
14.09.2019 21:00:00 24,3 18,6 4 2 S 1024,4
14.09.2019 20:00:00 24,1 17,8 8 4 S 1024,0
14.09.2019 19:00:00 24,8 17,0 8 4 S 1023,6
14.09.2019 18:00:00 25,7 16,7 8 4 S 1023,6
14.09.2019 17:00:00 26,3 18,9 13 7 S 1024,0
14.09.2019 16:00:00 26,9 18,9 9 5 S 1024,4
14.09.2019 15:00:00 26,7 18,8 9 5 S 1024,8
14.09.2019 14:00:00 26,7 18,8 13 7 S 1025,0
14.09.2019 13:00:00 27,1 19,1 8 4 S 1025,4
14.09.2019 12:00:00 27,5 19,5 4 2 S 1025,6
14.09.2019 11:00:00 27,0 18,8 4 2 S 1025,6
14.09.2019 10:00:00 27,1 20,9 5 3 S 1025,5
14.09.2019 09:00:00 26,2 22,4 2 1 S 1025,4
14.09.2019 08:00:00 24,6 21,5 2 1 S 1025,0
14.09.2019 07:00:00 22,3 17,4 2 1 S 1024,5
14.09.2019 06:00:00 23,3 12,6 4 2 S 1024,2
14.09.2019 05:00:00 24,1 16,5 2 1 S 1024,4
14.09.2019 04:00:00 24,2 16,9 8 4 S 1024,6
14.09.2019 03:00:00 24,0 21,8 0 0 N 1025,0
14.09.2019 02:00:00 24,2 21,5 4 2 S 1025,4
14.09.2019 01:00:00 24,5 21,8 8 4 S 1025,6
14.09.2019 00:00:00 25,0 20,8 13 7 S 1025,7
13.09.2019 23:00:00 25,2 19,3 15 8 S 1025,8
13.09.2019 22:00:00 25,0 18,6 16 9 S 1025,6
13.09.2019 21:00:00 25,0 20,6 18 10 S 1025,3
13.09.2019 20:00:00 25,2 20,0 21 11 S 1024,8
13.09.2019 19:00:00 25,3 20,9 22 12 S 1024,6
13.09.2019 18:00:00 26,2 20,2 16 9 S 1024,8
13.09.2019 17:00:00 27,4 17,2 15 8 S 1024,6
13.09.2019 16:00:00 26,9 20,7 9 5 S 1024,9
13.09.2019 15:00:00 26,8 19,4 15 8 S 1025,1
13.09.2019 14:00:00 26,5 20,8 15 8 S 1025,3
13.09.2019 13:00:00 26,8 19,6 13 7 S 1025,7
13.09.2019 12:00:00 27,2 22,8 9 5 S 1026,2
13.09.2019 11:00:00 27,4 23,2 5 3 S 1026,5
13.09.2019 10:00:00 26,8 22,8 5 3 S 1026,6
13.09.2019 09:00:00 26,3 23,3 4 2 S 1026,2
13.09.2019 08:00:00 25,4 23,0 2 1 S 1025,7
13.09.2019 07:00:00 23,0 21,0 4 2 S 1025,6
13.09.2019 06:00:00 23,4 20,9 5 3 S 1025,5
13.09.2019 05:00:00 24,0 21,3 9 5 S 1025,1
13.09.2019 04:00:00 23,5 20,8 0 0 N 1025,1
13.09.2019 03:00:00 22,9 19,8 5 3 S 1025,2
13.09.2019 02:00:00 23,2 20,1 4 2 S 1025,5
13.09.2019 01:00:00 23,8 20,7 5 3 S 1025,8
13.09.2019 00:00:00 24,2 20,9 4 2 S 1025,8
12.09.2019 23:00:00 24,7 21,0 8 4 S 1025,8
12.09.2019 22:00:00 24,6 20,9 9 5 S 1025,5
12.09.2019 21:00:00 24,7 21,2 13 7 S 1025,5
12.09.2019 20:00:00 24,9 21,9 15 8 S 1025,0
12.09.2019 19:00:00 25,4 22,8 15 8 S 1024,7
12.09.2019 18:00:00 25,9 22,9 15 8 S 1024,6
12.09.2019 17:00:00 26,0 22,4 16 9 S 1024,8
12.09.2019 16:00:00 26,6 22,2 21 11 S 1024,9
12.09.2019 15:00:00 26,8 21,5 18 10 S 1025,2
12.09.2019 14:00:00 26,8 21,7 16 9 S 1025,6
12.09.2019 13:00:00 26,9 22,0 15 8 S 1025,8
12.09.2019 12:00:00 26,6 21,7 16 9 S 1025,7
12.09.2019 11:00:00 26,6 22,4 15 8 S 1025,5
12.09.2019 10:00:00 26,1 22,3 15 8 S 1024,8
12.09.2019 09:00:00 25,4 22,0 13 7 S 1024,1
12.09.2019 08:00:00 24,9 21,8 9 5 S 1023,6
12.09.2019 07:00:00 24,0 19,9 11 6 S 1023,2
12.09.2019 06:00:00 23,8 16,7 5 3 S 1022,7
12.09.2019 05:00:00 24,1 19,1 0 0 N 1022,2
12.09.2019 04:00:00 23,3 20,8 2 1 S 1022,3
12.09.2019 03:00:00 24,0 21,3 0 0 N 1022,0
12.09.2019 02:00:00 24,6 22,0 4 2 S 1022,0
12.09.2019 01:00:00 24,6 22,0 8 4 S 1022,0
12.09.2019 00:00:00 24,6 21,5 5 3 S 1021,4
11.09.2019 23:00:00 24,6 21,1 5 3 S 1021,4
11.09.2019 22:00:00 24,6 20,2 4 2 S 1021,3
11.09.2019 21:00:00 24,6 18,9 8 4 S 1020,9
11.09.2019 20:00:00 24,7 18,1 5 3 S 1019,9
11.09.2019 19:00:00 24,9 19,7 8 4 S 1019,3
11.09.2019 18:00:00 26,3 19,9 11 6 S 1018,9
11.09.2019 17:00:00 26,3 19,6 9 5 S 1018,8
11.09.2019 16:00:00 26,3 18,9 4 2 S 1018,7
11.09.2019 15:00:00 27,0 20,0 5 3 S 1018,5
11.09.2019 14:00:00 27,1 21,1 5 3 S 1018,1
11.09.2019 13:00:00 26,7 20,9 8 4 S 1017,9
11.09.2019 12:00:00 26,6 21,3 8 4 S 1017,6
11.09.2019 11:00:00 26,3 21,5 9 5 S 1017,0
11.09.2019 10:00:00 26,0 21,2 8 4 S 1017,0
11.09.2019 09:00:00 24,8 21,5 9 5 S 1016,6
11.09.2019 08:00:00 23,2 21,4 8 4 S 1015,7
11.09.2019 07:00:00 22,5 20,5 9 5 S 1014,7
11.09.2019 06:00:00 23,6 21,4 9 5 S 1014,5
11.09.2019 05:00:00 23,9 21,7 11 6 S 1014,3
11.09.2019 04:00:00 24,2 22,2 18 10 S 1014,0
11.09.2019 03:00:00 24,0 22,0 11 6 S 1013,9
11.09.2019 02:00:00 23,9 21,4 9 5 S 1013,8
11.09.2019 01:00:00 24,1 20,4 9 5 S 1014,1
11.09.2019 00:00:00 24,2 20,3 8 4 S 1013,8
10.09.2019 23:00:00 23,8 19,5 2 1 S 1014,0
10.09.2019 22:00:00 24,1 19,3 8 4 S 1013,9
10.09.2019 21:00:00 24,3 19,5 9 5 S 1013,5
10.09.2019 20:00:00 24,0 18,1 5 3 S 1012,7
10.09.2019 19:00:00 23,8 17,0 4 2 S 1013,0
10.09.2019 18:00:00 24,2 16,9 0 0 N 1013,2
10.09.2019 17:00:00 24,6 17,5 2 1 S 1013,4

tt = temperature
td = dewpoint
ff = wind speed
dd = wind direction
ppp = reduced air pressure

Next stations